createdAt,value
2023-03-25T00:00:17.646Z,1.00
2023-03-25T00:02:47.795Z,1.50
2023-03-25T00:05:16.333Z,1.00
2023-03-25T00:07:44.338Z,1.00
2023-03-25T00:10:12.816Z,1.00
2023-03-25T00:12:40.405Z,0.75
2023-03-25T00:15:08.838Z,1.50
2023-03-25T00:17:37.074Z,1.00
2023-03-25T00:20:09.120Z,0.00
2023-03-25T00:22:40.977Z,1.00
2023-03-25T00:25:10.749Z,1.00
2023-03-25T00:27:38.518Z,0.00
2023-03-25T00:30:06.783Z,0.00
2023-03-25T00:32:33.753Z,1.50
2023-03-25T00:35:00.723Z,0.25
2023-03-25T00:37:28.738Z,1.00
2023-03-25T00:39:55.641Z,1.00
2023-03-25T00:42:26.453Z,1.00
2023-03-25T00:44:53.944Z,3.00
2023-03-25T00:47:22.332Z,4.00
2023-03-25T00:49:52.986Z,3.00
2023-03-25T00:52:23.229Z,1.00
2023-03-25T00:54:50.246Z,3.00
2023-03-25T00:57:17.828Z,1.50
2023-03-25T00:59:44.762Z,3.00
2023-03-25T01:02:11.798Z,1.75
2023-03-25T01:04:43.094Z,1.00
2023-03-25T01:07:10.084Z,1.00
2023-03-25T01:09:59.502Z,1.50
2023-03-25T01:12:46.889Z,3.00
2023-03-25T01:15:26.678Z,6.00
2023-03-25T01:18:13.102Z,4.00
2023-03-25T01:20:59.737Z,3.00
2023-03-25T01:23:26.595Z,4.00
2023-03-25T01:25:53.680Z,5.50
2023-03-25T01:28:20.899Z,5.75
2023-03-25T01:30:47.791Z,5.00
2023-03-25T01:33:14.895Z,11.00
2023-03-25T01:35:42.385Z,13.25
2023-03-25T01:38:09.283Z,14.75
2023-03-25T01:40:36.232Z,19.00
2023-03-25T01:43:03.135Z,18.75
2023-03-25T01:45:33.114Z,19.75
2023-03-25T01:48:10.451Z,19.25
2023-03-25T01:50:45.156Z,14.00
2023-03-25T01:53:12.706Z,13.50
2023-03-25T01:55:40.524Z,16.50
2023-03-25T01:58:14.062Z,14.50
2023-03-25T02:00:44.590Z,13.25
2023-03-25T02:03:13.246Z,10.75
2023-03-25T02:05:49.250Z,10.00
2023-03-25T02:08:16.445Z,11.00
2023-03-25T02:11:05.045Z,10.25
2023-03-25T02:14:00.549Z,7.00
2023-03-25T02:16:56.040Z,9.00
2023-03-25T02:20:16.871Z,6.75
2023-03-25T02:23:04.322Z,3.50
2023-03-25T02:26:08.252Z,5.00
2023-03-25T02:29:13.293Z,5.00
2023-03-25T02:31:52.755Z,6.00
2023-03-25T02:34:42.100Z,6.25
2023-03-25T02:37:11.881Z,4.25
2023-03-25T02:39:46.266Z,3.50
2023-03-25T02:42:26.100Z,4.25
2023-03-25T02:44:59.045Z,3.00
2023-03-25T02:47:34.097Z,2.50
2023-03-25T02:50:10.031Z,2.25
2023-03-25T02:52:42.951Z,3.00
2023-03-25T02:55:15.225Z,2.00
2023-03-25T02:57:46.171Z,2.75
2023-03-25T03:00:16.296Z,2.00
2023-03-25T03:03:00.733Z,1.75
2023-03-25T03:05:33.969Z,1.75
2023-03-25T03:08:23.040Z,1.00
2023-03-25T03:10:58.980Z,0.00
2023-03-25T03:14:00.461Z,0.00
2023-03-25T03:16:36.643Z,0.00
2023-03-25T03:19:48.414Z,1.00
2023-03-25T03:22:40.846Z,1.00
2023-03-25T03:25:20.725Z,6.00
2023-03-25T03:27:56.735Z,5.00
2023-03-25T03:30:41.125Z,4.00
2023-03-25T03:33:48.181Z,14.50
2023-03-25T03:36:20.543Z,8.75
2023-03-25T03:38:52.150Z,12.25
2023-03-25T03:41:27.316Z,6.25
2023-03-25T03:44:19.038Z,5.75
2023-03-25T03:46:59.433Z,5.75
2023-03-25T03:49:44.797Z,3.50
2023-03-25T03:52:42.665Z,5.25
2023-03-25T03:55:29.501Z,4.75
2023-03-25T03:58:09.843Z,4.00
2023-03-25T04:01:03.637Z,4.50
2023-03-25T04:03:40.951Z,1.00
2023-03-25T04:06:21.282Z,3.50
2023-03-25T04:09:05.762Z,1.75
2023-03-25T04:11:50.566Z,2.00
2023-03-25T04:14:17.592Z,2.00
2023-03-25T04:16:45.946Z,4.00
2023-03-25T04:19:14.085Z,2.75
2023-03-25T04:21:41.865Z,1.00
2023-03-25T04:24:08.877Z,3.50
2023-03-25T04:26:38.411Z,3.75
2023-03-25T04:29:05.676Z,0.50
2023-03-25T04:31:32.611Z,1.00
2023-03-25T04:34:00.759Z,1.00
2023-03-25T04:36:33.936Z,0.00
2023-03-25T04:39:01.455Z,0.25
2023-03-25T04:41:28.940Z,0.00
2023-03-25T04:43:55.978Z,0.00
2023-03-25T04:46:22.976Z,1.00
2023-03-25T04:48:50.041Z,0.00
2023-03-25T04:51:16.895Z,0.00
2023-03-25T04:53:44.126Z,0.75
2023-03-25T04:56:16.535Z,1.00
2023-03-25T04:58:44.624Z,2.00
2023-03-25T05:01:32.160Z,4.25
2023-03-25T05:04:07.259Z,1.75
2023-03-25T05:06:39.099Z,3.00
2023-03-25T05:09:07.771Z,0.00
2023-03-25T05:11:37.341Z,3.25
2023-03-25T05:14:04.258Z,1.00
2023-03-25T05:16:31.305Z,1.00
2023-03-25T05:18:58.193Z,1.00
2023-03-25T05:21:25.170Z,2.00
2023-03-25T05:23:52.930Z,1.75
2023-03-25T05:26:20.991Z,1.00
2023-03-25T05:28:51.633Z,1.00
2023-03-25T05:31:19.029Z,1.00
2023-03-25T05:33:45.983Z,1.25
2023-03-25T05:36:14.039Z,1.50
2023-03-25T05:38:44.613Z,1.00
2023-03-25T05:41:19.014Z,2.00
2023-03-25T05:43:47.882Z,1.00
2023-03-25T05:46:15.656Z,3.00
2023-03-25T05:48:43.106Z,0.00
2023-03-25T05:51:21.860Z,0.00
2023-03-25T05:53:52.384Z,1.00
2023-03-25T05:56:21.402Z,1.00
2023-03-25T05:58:50.193Z,0.75
2023-03-25T06:01:32.080Z,1.00
2023-03-25T06:04:01.982Z,1.00
2023-03-25T06:06:29.600Z,1.00
2023-03-25T06:08:56.851Z,2.00
2023-03-25T06:11:23.718Z,1.00
2023-03-25T06:13:50.644Z,2.00
2023-03-25T06:16:20.551Z,3.00
2023-03-25T06:18:51.006Z,2.00
2023-03-25T06:21:19.974Z,3.25
2023-03-25T06:23:50.945Z,3.50
2023-03-25T06:26:18.965Z,5.00
2023-03-25T06:28:46.353Z,4.00
2023-03-25T06:31:20.732Z,4.00
2023-03-25T06:33:49.212Z,4.75
2023-03-25T06:36:21.011Z,5.00
2023-03-25T06:38:50.042Z,4.50
2023-03-25T06:41:22.100Z,2.00
2023-03-25T06:43:49.464Z,3.00
2023-03-25T06:46:17.073Z,2.00
2023-03-25T06:48:44.329Z,2.00
2023-03-25T06:51:11.287Z,1.00
2023-03-25T06:53:38.238Z,1.00
2023-03-25T06:56:05.642Z,1.00
2023-03-25T06:58:35.439Z,0.50
2023-03-25T07:01:07.430Z,1.25
2023-03-25T07:03:39.388Z,1.00
2023-03-25T07:06:06.842Z,1.00
2023-03-25T07:08:33.849Z,4.00
2023-03-25T07:11:07.945Z,1.00
2023-03-25T07:13:35.173Z,1.00
2023-03-25T07:16:03.259Z,3.00
2023-03-25T07:18:30.593Z,2.00
2023-03-25T07:20:57.562Z,2.00
2023-03-25T07:23:24.591Z,3.00
2023-03-25T07:25:51.772Z,2.00
2023-03-25T07:28:19.360Z,2.75
2023-03-25T07:30:46.268Z,2.50
2023-03-25T07:33:13.545Z,6.75
2023-03-25T07:35:40.575Z,4.25
2023-03-25T07:38:07.589Z,3.75
2023-03-25T07:40:34.475Z,3.00
2023-03-25T07:43:01.430Z,4.75
2023-03-25T07:45:28.939Z,5.50
2023-03-25T07:47:55.956Z,5.00
2023-03-25T07:50:25.390Z,4.50
2023-03-25T07:52:53.646Z,5.00
2023-03-25T07:55:20.582Z,3.75
2023-03-25T07:57:47.940Z,6.00
2023-03-25T08:00:14.994Z,5.25
2023-03-25T08:02:42.011Z,5.25
2023-03-25T08:05:10.035Z,5.00
2023-03-25T08:07:36.975Z,4.00
2023-03-25T08:10:04.486Z,8.00
2023-03-25T08:12:31.341Z,5.25
2023-03-25T08:15:00.195Z,5.25
2023-03-25T08:17:27.266Z,7.00
2023-03-25T08:19:54.241Z,4.50
2023-03-25T08:22:21.348Z,4.50
2023-03-25T08:24:48.274Z,3.50
2023-03-25T08:27:16.572Z,2.00
2023-03-25T08:29:44.809Z,5.00
2023-03-25T08:32:11.697Z,6.25
2023-03-25T08:34:40.298Z,3.75
2023-03-25T08:37:08.256Z,3.50
2023-03-25T08:39:39.962Z,4.50
2023-03-25T08:42:10.144Z,6.50
2023-03-25T08:44:37.082Z,6.25
2023-03-25T08:47:04.149Z,4.50
2023-03-25T08:49:31.255Z,3.75
2023-03-25T08:51:59.367Z,3.75
2023-03-25T08:54:27.411Z,3.75
2023-03-25T08:56:54.810Z,4.00
2023-03-25T08:59:21.815Z,3.75
2023-03-25T09:01:48.793Z,3.00
2023-03-25T09:04:16.026Z,2.75
2023-03-25T09:06:47.580Z,2.50
2023-03-25T09:09:16.601Z,3.00
2023-03-25T09:11:44.061Z,2.25
2023-03-25T09:14:11.277Z,1.00
2023-03-25T09:16:38.197Z,1.33
2023-03-25T09:19:05.115Z,1.67
2023-03-25T09:21:31.994Z,2.00
2023-03-25T09:23:58.898Z,3.50
2023-03-25T09:26:26.404Z,4.00
2023-03-25T09:28:55.732Z,7.00
2023-03-25T09:31:23.766Z,5.00
2023-03-25T09:33:50.819Z,5.00
2023-03-25T09:36:17.811Z,3.33
2023-03-25T09:38:44.716Z,4.00
2023-03-25T09:41:52.563Z,3.00
2023-03-25T09:44:25.320Z,4.00
2023-03-25T09:46:52.675Z,6.00
2023-03-25T09:49:39.357Z,5.00
2023-03-25T09:52:15.623Z,5.25
2023-03-25T09:54:54.217Z,4.25
2023-03-25T09:57:37.851Z,4.67
2023-03-25T10:00:07.185Z,8.50
2023-03-25T10:02:46.004Z,7.00
2023-03-25T10:05:55.532Z,7.00
2023-03-25T10:08:44.902Z,6.50
2023-03-25T10:11:37.785Z,3.00
2023-03-25T10:14:10.764Z,6.00
2023-03-25T10:17:12.575Z,4.00
2023-03-25T10:19:54.542Z,5.00
2023-03-25T10:22:36.833Z,7.00
2023-03-25T10:25:15.705Z,6.00
2023-03-25T10:27:49.541Z,7.75
2023-03-25T10:30:22.104Z,9.00
2023-03-25T10:32:57.748Z,9.25
2023-03-25T10:35:39.774Z,4.50
2023-03-25T10:38:18.824Z,9.50
2023-03-25T10:41:04.299Z,7.75
2023-03-25T10:43:38.314Z,6.75
2023-03-25T10:46:30.477Z,10.50
2023-03-25T10:48:57.851Z,7.50
2023-03-25T10:51:30.676Z,12.75
2023-03-25T10:53:58.809Z,11.00
2023-03-25T10:56:29.742Z,14.75
2023-03-25T10:58:58.238Z,13.00
2023-03-25T11:01:42.934Z,6.00
2023-03-25T11:04:18.187Z,11.00
2023-03-25T11:06:51.283Z,9.25
2023-03-25T11:09:32.856Z,7.75
2023-03-25T11:12:06.567Z,7.00
2023-03-25T11:14:39.018Z,6.25
2023-03-25T11:17:27.364Z,4.75
2023-03-25T11:20:08.085Z,5.00
2023-03-25T11:22:38.780Z,8.00
2023-03-25T11:25:33.305Z,11.50
2023-03-25T11:28:05.558Z,7.50
2023-03-25T11:30:32.502Z,5.00
2023-03-25T11:33:15.330Z,5.25
2023-03-25T11:35:44.681Z,3.75
2023-03-25T11:38:23.852Z,5.25
2023-03-25T11:40:56.897Z,5.00
2023-03-25T11:43:28.621Z,7.00
2023-03-25T11:45:55.838Z,4.25
2023-03-25T11:48:25.155Z,3.50
2023-03-25T11:50:57.932Z,2.25
2023-03-25T11:53:27.345Z,3.00
2023-03-25T11:56:05.111Z,5.00
2023-03-25T11:58:36.282Z,6.00
2023-03-25T12:01:38.531Z,10.50
2023-03-25T12:04:14.560Z,3.25
2023-03-25T12:06:58.435Z,2.00
2023-03-25T12:09:31.954Z,3.00
2023-03-25T12:12:17.573Z,3.00
2023-03-25T12:14:53.181Z,1.75
2023-03-25T12:17:47.121Z,0.50
2023-03-25T12:20:44.571Z,4.00
2023-03-25T12:23:30.590Z,2.50
2023-03-25T12:26:13.186Z,2.25
2023-03-25T12:28:56.655Z,2.00
2023-03-25T12:31:42.932Z,1.00
2023-03-25T12:34:12.511Z,1.00
2023-03-25T12:36:57.423Z,1.00
2023-03-25T12:39:52.994Z,2.67
2023-03-25T12:42:33.821Z,1.00
2023-03-25T12:45:29.535Z,1.00
2023-03-25T12:48:16.153Z,2.75
2023-03-25T12:50:53.024Z,4.00
2023-03-25T12:53:38.357Z,3.75
2023-03-25T12:56:26.494Z,3.00
2023-03-25T12:59:11.513Z,3.25
2023-03-25T13:02:32.497Z,1.75
2023-03-25T13:05:37.241Z,2.00
2023-03-25T13:08:12.807Z,3.75
2023-03-25T13:10:42.784Z,1.25
2023-03-25T13:13:19.173Z,1.00
2023-03-25T13:15:53.507Z,1.75
2023-03-25T13:18:27.588Z,0.50
2023-03-25T13:21:13.766Z,1.00
2023-03-25T13:23:43.935Z,1.00
2023-03-25T13:26:19.862Z,0.00
2023-03-25T13:29:24.514Z,0.75
2023-03-25T13:31:52.854Z,0.00
2023-03-25T13:34:36.467Z,0.00
2023-03-25T13:37:11.582Z,1.00
2023-03-25T13:40:04.905Z,1.00
2023-03-25T13:42:51.969Z,0.75
2023-03-25T13:45:21.304Z,1.75
2023-03-25T13:47:55.201Z,1.50
2023-03-25T13:50:31.979Z,1.00
2023-03-25T13:53:07.734Z,1.00
2023-03-25T13:55:43.013Z,1.00
2023-03-25T13:58:27.247Z,2.50
2023-03-25T14:01:28.292Z,0.50
2023-03-25T14:04:11.731Z,2.50
2023-03-25T14:06:50.505Z,0.25
2023-03-25T14:09:35.608Z,1.75
2023-03-25T14:12:16.335Z,4.50
2023-03-25T14:15:00.598Z,4.00
2023-03-25T14:17:30.177Z,2.00
2023-03-25T14:19:59.900Z,3.50
2023-03-25T14:22:36.149Z,4.00
2023-03-25T14:25:03.593Z,3.75
2023-03-25T14:27:34.307Z,2.50
2023-03-25T14:30:06.487Z,2.75
2023-03-25T14:32:37.952Z,4.00
2023-03-25T14:35:35.727Z,3.50
2023-03-25T14:38:08.816Z,2.00
2023-03-25T14:40:44.906Z,2.00
2023-03-25T14:43:26.351Z,2.00
2023-03-25T14:46:03.752Z,2.00
2023-03-25T14:48:37.992Z,3.00
2023-03-25T14:51:23.790Z,1.00
2023-03-25T14:54:03.503Z,1.00
2023-03-25T14:56:42.253Z,1.25
2023-03-25T14:59:15.843Z,0.00
2023-03-25T15:01:45.051Z,4.25
2023-03-25T15:04:26.116Z,3.00
2023-03-25T15:06:53.485Z,1.75
2023-03-25T15:09:22.534Z,4.00
2023-03-25T15:12:05.453Z,2.25
2023-03-25T15:14:39.462Z,1.75
2023-03-25T15:17:12.311Z,2.00
2023-03-25T15:20:10.886Z,2.00
2023-03-25T15:22:38.928Z,1.50
2023-03-25T15:25:19.183Z,3.50
2023-03-25T15:28:11.408Z,2.00
2023-03-25T15:30:56.988Z,2.25
2023-03-25T15:33:46.276Z,3.00
2023-03-25T15:36:28.277Z,2.00
2023-03-25T15:39:18.630Z,1.50
2023-03-25T15:42:00.872Z,1.00
2023-03-25T15:44:58.665Z,2.00
2023-03-25T15:47:37.486Z,3.00
2023-03-25T15:50:38.594Z,1.50
2023-03-25T15:53:41.919Z,4.00
2023-03-25T15:56:17.725Z,6.50
2023-03-25T15:58:57.207Z,5.00
2023-03-25T16:01:31.596Z,5.25
2023-03-25T16:04:05.123Z,4.00
2023-03-25T16:06:38.290Z,3.00
2023-03-25T16:09:09.467Z,3.00
2023-03-25T16:11:43.363Z,4.25
2023-03-25T16:14:16.279Z,6.00
2023-03-25T16:16:51.197Z,6.50
2023-03-25T16:19:31.972Z,5.25
2023-03-25T16:22:03.854Z,6.75
2023-03-25T16:24:34.444Z,7.25
2023-03-25T16:27:22.118Z,5.50
2023-03-25T16:29:53.000Z,6.75
2023-03-25T16:32:23.549Z,16.00
2023-03-25T16:34:51.548Z,10.50
2023-03-25T16:37:19.278Z,9.75
2023-03-25T16:39:52.656Z,4.25
2023-03-25T16:42:22.661Z,4.50
2023-03-25T16:44:49.622Z,8.75
2023-03-25T16:47:16.948Z,6.75
2023-03-25T16:49:48.865Z,9.75
2023-03-25T16:52:19.806Z,7.75
2023-03-25T16:54:52.474Z,8.00
2023-03-25T16:57:24.847Z,9.25
2023-03-25T16:59:54.500Z,6.00
2023-03-25T17:02:41.082Z,5.00
2023-03-25T17:05:22.368Z,9.25
2023-03-25T17:08:04.277Z,6.25
2023-03-25T17:10:33.623Z,6.75
2023-03-25T17:13:10.900Z,5.50
2023-03-25T17:15:38.456Z,9.75
2023-03-25T17:18:15.191Z,7.75
2023-03-25T17:20:45.126Z,10.25
2023-03-25T17:23:18.289Z,8.00
2023-03-25T17:26:01.803Z,6.00
2023-03-25T17:28:40.222Z,8.75
2023-03-25T17:31:25.480Z,13.75
2023-03-25T17:33:58.230Z,16.00
2023-03-25T17:36:25.357Z,19.75
2023-03-25T17:38:56.425Z,13.50
2023-03-25T17:41:29.492Z,14.25
2023-03-25T17:43:57.668Z,12.50
2023-03-25T17:46:30.404Z,12.50
2023-03-25T17:48:58.825Z,15.00
2023-03-25T17:51:28.627Z,14.00
2023-03-25T17:53:56.309Z,15.50
2023-03-25T17:56:27.740Z,17.00
2023-03-25T17:59:03.680Z,21.00
2023-03-25T18:01:31.839Z,13.25
2023-03-25T18:03:58.955Z,12.00
2023-03-25T18:06:26.130Z,10.75
2023-03-25T18:08:53.284Z,7.25
2023-03-25T18:11:21.047Z,10.00
2023-03-25T18:13:48.331Z,5.25
2023-03-25T18:16:20.689Z,3.00
2023-03-25T18:18:48.196Z,3.25
2023-03-25T18:21:17.256Z,2.00
2023-03-25T18:23:47.882Z,1.25
2023-03-25T18:26:19.104Z,1.00
2023-03-25T18:28:47.054Z,3.00
2023-03-25T18:31:17.612Z,4.75
2023-03-25T18:33:51.799Z,3.75
2023-03-25T18:36:19.463Z,3.50
2023-03-25T18:38:46.373Z,3.50
2023-03-25T18:41:17.653Z,4.00
2023-03-25T18:43:44.933Z,6.25
2023-03-25T18:46:14.362Z,6.00
2023-03-25T18:48:42.051Z,6.25
2023-03-25T18:51:13.321Z,8.00
2023-03-25T18:53:41.245Z,11.00
2023-03-25T18:56:08.919Z,12.00
2023-03-25T18:58:37.613Z,9.00
2023-03-25T19:01:07.779Z,16.00
2023-03-25T19:03:40.614Z,13.50
2023-03-25T19:06:10.948Z,8.75
2023-03-25T19:08:38.179Z,7.00
2023-03-25T19:11:19.046Z,9.75
2023-03-25T19:13:48.428Z,15.75
2023-03-25T19:16:15.824Z,11.50
2023-03-25T19:18:42.842Z,14.75
2023-03-25T19:21:18.351Z,10.50
2023-03-25T19:23:46.151Z,16.00
2023-03-25T19:26:13.652Z,7.00
2023-03-25T19:28:41.333Z,9.25
2023-03-25T19:31:08.352Z,8.00
2023-03-25T19:33:35.306Z,20.50
2023-03-25T19:36:04.498Z,28.00
2023-03-25T19:38:33.091Z,27.50
2023-03-25T19:41:08.479Z,25.25
2023-03-25T19:43:36.088Z,22.25
2023-03-25T19:46:03.919Z,19.50
2023-03-25T19:48:30.906Z,18.00
2023-03-25T19:50:58.745Z,13.50
2023-03-25T19:53:27.213Z,26.75
2023-03-25T19:55:55.552Z,27.75
2023-03-25T19:58:24.817Z,23.75
2023-03-25T20:00:51.969Z,27.25
2023-03-25T20:03:22.758Z,16.00
2023-03-25T20:05:56.303Z,21.75
2023-03-25T20:08:23.635Z,25.25
2023-03-25T20:10:50.838Z,23.00
2023-03-25T20:13:17.821Z,21.25
2023-03-25T20:15:44.834Z,24.00
2023-03-25T20:18:11.856Z,20.25
2023-03-25T20:20:40.642Z,24.75
2023-03-25T20:23:08.184Z,28.00
2023-03-25T20:25:35.550Z,21.00
2023-03-25T20:28:02.598Z,20.50
2023-03-25T20:30:29.665Z,20.75
2023-03-25T20:32:58.338Z,21.25
2023-03-25T20:35:25.397Z,19.75
2023-03-25T20:37:52.468Z,25.25
2023-03-25T20:40:23.438Z,18.25
2023-03-25T20:42:54.894Z,12.50
2023-03-25T20:45:21.830Z,12.50
2023-03-25T20:47:48.770Z,7.75
2023-03-25T20:50:16.715Z,6.50
2023-03-25T20:52:44.055Z,9.00
2023-03-25T20:55:11.595Z,8.00
2023-03-25T20:57:39.547Z,6.50
2023-03-25T21:00:08.145Z,7.75
2023-03-25T21:02:35.789Z,5.75
2023-03-25T21:05:03.526Z,3.00
2023-03-25T21:07:32.377Z,2.50
2023-03-25T21:09:59.755Z,1.75
2023-03-25T21:12:40.709Z,6.00
2023-03-25T21:15:10.882Z,6.00
2023-03-25T21:17:38.071Z,8.50
2023-03-25T21:20:07.657Z,5.50
2023-03-25T21:22:35.296Z,6.75
2023-03-25T21:25:02.403Z,2.75
2023-03-25T21:27:38.502Z,29.25
2023-03-25T21:30:08.105Z,29.75
2023-03-25T21:32:35.152Z,35.00
2023-03-25T21:35:02.282Z,28.50
2023-03-25T21:37:29.270Z,29.75
2023-03-25T21:39:58.252Z,20.50
2023-03-25T21:42:25.532Z,20.25
2023-03-25T21:44:52.597Z,21.00
2023-03-25T21:47:19.459Z,17.75
2023-03-25T21:49:46.377Z,12.50
2023-03-25T21:52:13.684Z,10.00
2023-03-25T21:54:43.862Z,7.00
2023-03-25T21:57:11.635Z,4.00
2023-03-25T21:59:38.752Z,2.25
2023-03-25T22:02:06.138Z,1.25
2023-03-25T22:04:35.026Z,2.50
2023-03-25T22:07:02.030Z,2.75
2023-03-25T22:09:29.012Z,2.50
2023-03-25T22:11:56.021Z,2.00
2023-03-25T22:14:23.021Z,4.25
2023-03-25T22:16:50.008Z,3.00
2023-03-25T22:19:17.024Z,3.50
2023-03-25T22:21:44.077Z,4.00
2023-03-25T22:24:11.508Z,3.00
2023-03-25T22:26:39.989Z,4.00
2023-03-25T22:29:09.782Z,2.75
2023-03-25T22:31:41.338Z,2.00
2023-03-25T22:34:11.505Z,3.00
2023-03-25T22:36:41.502Z,1.00
2023-03-25T22:39:10.644Z,0.00
2023-03-25T22:41:37.606Z,1.00
2023-03-25T22:44:04.605Z,1.00
2023-03-25T22:46:32.441Z,0.00
2023-03-25T22:48:59.705Z,0.00
2023-03-25T22:51:27.282Z,0.00
2023-03-25T22:53:54.196Z,1.00
2023-03-25T22:56:23.605Z,1.00
2023-03-25T22:58:54.223Z,0.75
2023-03-25T23:01:26.014Z,0.25
2023-03-25T23:03:54.649Z,0.25
2023-03-25T23:06:22.602Z,1.00
2023-03-25T23:08:50.291Z,1.00
2023-03-25T23:11:24.189Z,0.00
2023-03-25T23:14:08.861Z,1.00
2023-03-25T23:16:36.813Z,3.75
2023-03-25T23:19:06.181Z,1.00
2023-03-25T23:21:34.478Z,1.00
2023-03-25T23:24:04.149Z,2.25
2023-03-25T23:26:39.494Z,4.00
2023-03-25T23:29:09.027Z,3.00
2023-03-25T23:31:37.512Z,1.75
2023-03-25T23:34:06.807Z,1.50
2023-03-25T23:36:36.628Z,1.50
2023-03-25T23:39:07.039Z,2.00
2023-03-25T23:41:34.438Z,2.75
2023-03-25T23:44:01.572Z,2.00
2023-03-25T23:46:28.694Z,1.00
2023-03-25T23:48:56.033Z,1.00
2023-03-25T23:51:25.006Z,2.00
2023-03-25T23:53:53.052Z,1.75
2023-03-25T23:56:21.765Z,2.00
2023-03-25T23:58:49.326Z,1.00
